Terminal Aerodrome Forecast
Issued by NWS

Home | Current Version | Previous Version | Text Only | Print | Product List | Glossary On
Versions: 1 2 3 4 5 6 7 8 9 10 11 12 13 14
000
FTUS41 KBTV 301700
TAFSLK
TAF
KSLK 301734Z 3018/0118 VRB05KT P6SM BKN050
      TEMPO 0100/0103 BKN025 OVC050
     FM010300 00000KT P6SM OVC015
     FM011500 06006KT P6SM BKN025=

USA.gov is the U.S. government's official web portal to all federal, state and local government web resources and services.